Time;durP1;ratioP1;P1;durP2;ratioP2;P2;SDS_P1;SDS_P2;PMS_P1;PMS_P2;Temp;Humidity;BMP_temperature;BMP_pressure;BME280_temperature;BME280_humidity;BME280_pressure;Samples;Min_cycle;Max_cycle;Signal;HPM_P1;HPM_P2
2022/08/30 00:01:05;;;;;;;11.53;7.63;;;17.20;99.90;;;;;;5080720;28;20210;-72
2022/08/30 00:03:36;;;;;;;12.67;7.77;;;17.30;99.90;;;;;;5067053;28;20200;-72
2022/08/30 00:06:05;;;;;;;10.50;7.50;;;17.20;99.90;;;;;;5082969;28;20624;-72
2022/08/30 00:08:33;;;;;;;9.83;7.97;;;17.20;99.90;;;;;;5081207;28;21092;-72
2022/08/30 00:11:01;;;;;;;8.70;7.30;;;17.20;99.90;;;;;;5086324;28;20721;-73
2022/08/30 00:13:28;;;;;;;12.27;8.13;;;17.10;99.90;;;;;;5069346;28;20215;-72
2022/08/30 00:15:58;;;;;;;10.27;7.80;;;17.10;99.90;;;;;;5084827;28;20232;-73
2022/08/30 00:18:25;;;;;;;12.57;8.47;;;17.00;99.90;;;;;;5082586;28;20196;-73
2022/08/30 00:20:53;;;;;;;10.83;8.47;;;17.00;99.90;;;;;;5084317;28;20203;-72
2022/08/30 00:23:21;;;;;;;9.93;7.90;;;17.00;99.90;;;;;;5085226;28;20747;-73
2022/08/30 00:25:48;;;;;;;10.20;8.23;;;17.00;99.90;;;;;;5086368;28;20208;-72
2022/08/30 00:28:15;;;;;;;13.30;8.67;;;17.60;99.90;;;;;;5081117;28;20261;-73
2022/08/30 00:30:44;;;;;;;11.20;8.47;;;16.90;99.90;;;;;;5066162;28;20199;-73
2022/08/30 00:33:12;;;;;;;10.87;8.70;;;17.00;99.90;;;;;;5083133;28;20648;-72
2022/08/30 00:35:40;;;;;;;9.83;8.03;;;16.90;99.90;;;;;;5082682;28;20227;-72
2022/08/30 00:38:08;;;;;;;10.60;8.87;;;16.90;99.90;;;;;;5084264;28;20215;-71
2022/08/30 00:40:36;;;;;;;12.17;9.50;;;16.80;99.90;;;;;;5082412;28;20679;-72
2022/08/30 00:43:08;;;;;;;13.57;8.27;;;16.70;99.90;;;;;;5066522;28;20208;-71
2022/08/30 00:45:41;;;;;;;13.40;10.10;;;16.80;99.90;;;;;;5085272;28;20229;-72
2022/08/30 00:48:08;;;;;;;12.50;9.87;;;16.70;99.90;;;;;;5085139;28;20204;-72
2022/08/30 00:50:47;;;;;;;13.60;9.83;;;16.70;99.90;;;;;;5083493;28;20212;-72
2022/08/30 00:53:21;;;;;;;12.20;8.47;;;16.60;99.90;;;;;;5081521;28;20226;-71
2022/08/30 00:55:49;;;;;;;12.13;9.27;;;16.60;99.90;;;;;;5081081;28;20223;-72
2022/08/30 00:58:20;;;;;;;12.40;9.90;;;;;;;;;;5065016;28;20578;-72
2022/08/30 01:00:50;;;;;;;12.93;9.67;;;16.60;99.90;;;;;;5081149;28;20291;-72
2022/08/30 01:03:17;;;;;;;13.43;9.67;;;16.70;99.90;;;;;;5082782;28;20204;-71
2022/08/30 01:05:47;;;;;;;14.80;10.47;;;16.50;99.90;;;;;;5083090;28;20219;-73
2022/08/30 01:08:14;;;;;;;11.33;9.40;;;16.40;99.90;;;;;;5083747;28;20222;-71
2022/08/30 01:10:42;;;;;;;12.40;9.77;;;16.40;99.90;;;;;;5083801;28;20242;-72
2022/08/30 01:13:12;;;;;;;11.37;9.60;;;16.40;99.90;;;;;;5081032;28;20222;-73
2022/08/30 01:15:41;;;;;;;15.07;10.60;;;;;;;;;;5082773;28;20253;-72
2022/08/30 01:18:10;;;;;;;11.13;9.33;;;16.20;99.90;;;;;;5078636;28;20304;-72
2022/08/30 01:20:48;;;;;;;15.77;10.60;;;16.20;99.90;;;;;;5069071;28;20207;-72
2022/08/30 01:23:18;;;;;;;15.67;10.73;;;16.10;99.90;;;;;;5064649;28;20341;-73
2022/08/30 01:25:49;;;;;;;15.30;10.50;;;16.10;99.90;;;;;;5084011;28;20294;-72
2022/08/30 01:28:22;;;;;;;16.57;11.00;;;16.00;99.90;;;;;;5061722;28;20265;-72
2022/08/30 01:30:50;;;;;;;16.83;11.90;;;16.00;99.90;;;;;;5082254;28;20331;-72
2022/08/30 01:33:18;;;;;;;17.17;11.43;;;15.90;99.90;;;;;;5081130;28;20668;-73
2022/08/30 01:36:01;;;;;;;16.67;12.23;;;15.90;99.90;;;;;;5063747;28;20377;-72
2022/08/30 01:38:46;;;;;;;15.70;11.43;;;15.80;99.90;;;;;;5077718;28;20208;-72
2022/08/30 01:41:34;;;;;;;19.07;12.43;;;15.80;99.90;;;;;;5065447;28;20204;-72
2022/08/30 01:44:04;;;;;;;16.97;11.73;;;15.80;99.90;;;;;;5063106;28;20594;-72
2022/08/30 01:46:35;;;;;;;18.53;13.57;;;15.70;99.90;;;;;;5078988;28;20323;-72
2022/08/30 01:49:06;;;;;;;19.40;13.33;;;15.70;99.90;;;;;;5063226;28;20635;-73
2022/08/30 01:51:34;;;;;;;14.50;11.83;;;15.70;99.90;;;;;;5082305;28;20228;-72
2022/08/30 01:54:01;;;;;;;17.53;12.60;;;15.60;99.90;;;;;;5065110;28;20246;-72
2022/08/30 01:56:28;;;;;;;20.03;13.60;;;15.60;99.90;;;;;;5081752;28;20232;-71
2022/08/30 01:58:56;;;;;;;14.73;12.13;;;15.60;99.90;;;;;;5067165;28;20195;-72
2022/08/30 02:01:30;;;;;;;19.47;13.90;;;15.60;99.90;;;;;;5077004;28;20216;-72
2022/08/30 02:03:58;;;;;;;20.43;13.00;;;15.60;99.90;;;;;;5083974;28;20207;-71
2022/08/30 02:06:26;;;;;;;19.50;13.77;;;15.60;99.90;;;;;;5081763;28;20223;-71
2022/08/30 02:08:54;;;;;;;16.40;11.83;;;15.60;99.90;;;;;;5067661;28;20204;-72
2022/08/30 02:11:21;;;;;;;20.80;14.10;;;15.60;99.90;;;;;;5083623;28;20210;-72
2022/08/30 02:13:48;;;;;;;17.40;13.50;;;15.50;99.90;;;;;;5084583;28;20200;-72
2022/08/30 02:16:21;;;;;;;16.23;13.20;;;15.50;99.90;;;;;;5063383;28;20231;-72
2022/08/30 02:18:50;;;;;;;17.07;12.97;;;15.50;99.90;;;;;;5086805;28;20196;-73
2022/08/30 02:21:18;;;;;;;18.87;13.63;;;15.50;99.90;;;;;;5081935;28;20342;-71
2022/08/30 02:23:46;;;;;;;17.23;12.70;;;15.50;99.90;;;;;;5086217;28;20226;-72
2022/08/30 02:26:13;;;;;;;17.10;12.97;;;15.40;99.90;;;;;;5071709;28;20239;-72
2022/08/30 02:28:41;;;;;;;19.53;14.13;;;15.40;99.90;;;;;;5070491;28;20315;-72
2022/08/30 02:31:16;;;;;;;18.67;14.70;;;15.40;99.90;;;;;;5084854;28;20223;-72
2022/08/30 02:33:45;;;;;;;18.33;13.13;;;15.40;99.90;;;;;;5062973;28;20301;-71
2022/08/30 02:36:13;;;;;;;18.67;13.60;;;15.40;99.90;;;;;;5066941;28;20246;-72
2022/08/30 02:38:39;;;;;;;22.07;14.17;;;15.40;99.90;;;;;;5069755;28;20211;-71
2022/08/30 02:41:06;;;;;;;16.33;12.60;;;15.40;99.90;;;;;;5068857;28;20568;-72
2022/08/30 02:43:34;;;;;;;21.17;15.17;;;15.30;99.90;;;;;;5085378;28;20224;-72
2022/08/30 02:46:01;;;;;;;19.50;14.13;;;15.30;99.90;;;;;;5082742;28;20211;-72
2022/08/30 02:48:28;;;;;;;16.70;13.00;;;15.30;99.90;;;;;;5086123;28;20214;-72
2022/08/30 02:50:55;;;;;;;15.33;11.73;;;15.30;99.90;;;;;;5087046;28;20213;-72
2022/08/30 02:53:22;;;;;;;19.37;15.37;;;15.30;99.90;;;;;;5078093;28;20204;-72
2022/08/30 02:55:51;;;;;;;21.70;15.63;;;15.30;99.90;;;;;;5069595;28;20231;-71
2022/08/30 02:58:18;;;;;;;20.67;15.50;;;15.30;99.90;;;;;;5085353;28;20680;-71
2022/08/30 03:00:45;;;;;;;20.37;13.93;;;15.20;99.90;;;;;;5085517;28;20204;-71
2022/08/30 03:03:12;;;;;;;21.70;15.40;;;15.20;99.90;;;;;;5080986;28;20710;-71
2022/08/30 03:05:39;;;;;;;19.93;14.83;;;15.20;99.90;;;;;;5070407;28;20234;-72
2022/08/30 03:08:08;;;;;;;20.87;13.63;;;15.20;99.90;;;;;;5084804;28;20228;-71
2022/08/30 03:10:37;;;;;;;21.00;16.07;;;15.20;99.90;;;;;;5067904;28;20204;-72
2022/08/30 03:13:06;;;;;;;22.30;16.23;;;15.10;99.90;;;;;;5064744;28;20230;-72
2022/08/30 03:15:35;;;;;;;19.10;16.03;;;15.10;99.90;;;;;;5083909;28;20542;-71
2022/08/30 03:18:02;;;;;;;18.60;15.13;;;15.10;99.90;;;;;;5069779;28;20211;-72
2022/08/30 03:20:29;;;;;;;19.67;15.80;;;15.10;99.90;;;;;;5069697;28;20215;-72
2022/08/30 03:22:56;;;;;;;21.93;16.33;;;15.10;99.90;;;;;;5087041;28;20227;-72
2022/08/30 03:25:24;;;;;;;23.23;16.37;;;15.20;99.90;;;;;;5083349;28;20207;-71
2022/08/30 03:27:51;;;;;;;23.57;16.07;;;15.00;99.90;;;;;;5084383;28;20223;-71
2022/08/30 03:30:19;;;;;;;20.90;15.33;;;15.00;99.90;;;;;;5084570;28;20696;-73
2022/08/30 03:32:47;;;;;;;20.10;15.93;;;15.00;99.90;;;;;;5085408;28;20590;-72
2022/08/30 03:35:18;;;;;;;21.60;16.40;;;15.00;99.90;;;;;;5083272;28;20273;-72
2022/08/30 03:37:45;;;;;;;24.53;16.17;;;14.90;99.90;;;;;;5082723;28;20224;-71
2022/08/30 03:40:20;;;;;;;19.50;15.30;;;14.90;99.90;;;;;;5086623;28;20217;-71
2022/08/30 03:42:48;;;;;;;21.00;15.50;;;14.90;99.90;;;;;;5079427;28;20751;-71
2022/08/30 03:45:18;;;;;;;19.80;15.63;;;14.90;99.90;;;;;;5082739;28;20219;-73
2022/08/30 03:47:45;;;;;;;20.53;15.43;;;14.90;99.90;;;;;;5082396;28;20548;-72
2022/08/30 03:50:14;;;;;;;20.07;14.27;;;14.90;99.90;;;;;;5066420;28;20204;-72
2022/08/30 03:52:41;;;;;;;22.10;16.37;;;14.80;99.90;;;;;;5082280;28;20213;-73
2022/08/30 03:55:08;;;;;;;22.93;15.87;;;14.80;99.90;;;;;;5084701;28;20735;-71
2022/08/30 03:57:35;;;;;;;18.60;14.20;;;14.80;99.90;;;;;;5082325;28;20318;-71
2022/08/30 04:00:05;;;;;;;21.67;15.87;;;14.80;99.90;;;;;;5084509;28;20290;-72
2022/08/30 04:02:32;;;;;;;22.13;15.93;;;14.70;99.90;;;;;;5061855;28;20207;-73
2022/08/30 04:04:59;;;;;;;22.93;16.60;;;14.70;99.90;;;;;;5084797;28;20219;-71
2022/08/30 04:07:26;;;;;;;24.90;17.90;;;14.70;99.90;;;;;;5084825;28;20223;-72
2022/08/30 04:09:53;;;;;;;23.90;16.67;;;14.70;99.90;;;;;;5085175;28;20314;-72
2022/08/30 04:12:20;;;;;;;24.40;18.17;;;14.70;99.90;;;;;;5084195;28;20685;-71
2022/08/30 04:14:49;;;;;;;24.43;17.73;;;14.70;99.90;;;;;;5083066;28;20718;-72
2022/08/30 04:17:15;;;;;;;24.83;16.97;;;14.70;99.90;;;;;;5080384;28;20228;-72
2022/08/30 04:19:42;;;;;;;21.27;16.03;;;14.70;99.90;;;;;;5084651;28;20212;-72
2022/08/30 04:22:10;;;;;;;20.53;16.13;;;14.70;99.90;;;;;;5067277;28;20560;-71
2022/08/30 04:24:37;;;;;;;23.53;17.20;;;14.70;99.90;;;;;;5068237;28;20567;-71
2022/08/30 04:27:04;;;;;;;22.27;17.27;;;14.70;99.90;;;;;;5065074;28;20260;-72
2022/08/30 04:29:32;;;;;;;26.83;18.73;;;14.60;99.90;;;;;;5085237;28;20804;-70
2022/08/30 04:31:59;;;;;;;25.53;18.30;;;14.60;99.90;;;;;;5081247;28;20212;-71
2022/08/30 04:34:26;;;;;;;26.13;18.70;;;14.60;99.90;;;;;;5082631;28;20205;-71
2022/08/30 04:36:53;;;;;;;25.60;18.20;;;14.60;99.90;;;;;;5085584;28;20236;-71
2022/08/30 04:39:20;;;;;;;22.53;16.67;;;14.60;99.90;;;;;;5084670;28;20230;-72
2022/08/30 04:41:47;;;;;;;23.87;17.00;;;14.60;99.90;;;;;;5082765;28;20665;-72
2022/08/30 04:44:14;;;;;;;28.53;19.33;;;14.60;99.90;;;;;;5065675;28;20199;-72
2022/08/30 04:46:45;;;;;;;24.63;18.17;;;14.60;99.90;;;;;;5082653;28;20207;-72
2022/08/30 04:49:12;;;;;;;25.30;17.63;;;14.70;99.90;;;;;;5074571;28;20212;-71
2022/08/30 04:51:40;;;;;;;23.00;17.20;;;14.70;99.90;;;;;;5065906;28;20240;-71
2022/08/30 04:54:07;;;;;;;21.40;16.67;;;14.70;99.90;;;;;;5060884;28;20211;-72
2022/08/30 04:56:34;;;;;;;22.70;17.50;;;14.70;99.90;;;;;;5059605;28;20525;-72
2022/08/30 04:59:02;;;;;;;21.83;16.53;;;14.70;99.90;;;;;;5079799;28;20310;-70
2022/08/30 05:01:31;;;;;;;18.53;15.47;;;14.70;99.90;;;;;;5077905;28;20323;-71
2022/08/30 05:04:12;;;;;;;24.63;17.40;;;14.70;99.90;;;;;;5077777;28;20687;-72
2022/08/30 05:06:39;;;;;;;28.77;18.57;;;14.70;99.90;;;;;;5077956;28;20248;-71
2022/08/30 05:09:07;;;;;;;24.30;17.00;;;14.70;99.90;;;;;;5083105;28;20204;-71
2022/08/30 05:11:34;;;;;;;20.10;15.73;;;14.70;99.90;;;;;;5074208;28;20270;-74
2022/08/30 05:14:01;;;;;;;21.23;16.20;;;14.70;99.90;;;;;;5074933;28;20196;-72
2022/08/30 05:16:28;;;;;;;20.30;15.90;;;14.80;99.90;;;;;;5082510;28;20755;-72
2022/08/30 05:18:55;;;;;;;22.63;17.37;;;14.80;99.90;;;;;;5074128;28;20224;-72
2022/08/30 05:21:25;;;;;;;21.83;17.00;;;14.80;99.90;;;;;;5076550;28;20219;-72
2022/08/30 05:23:55;;;;;;;17.53;13.53;;;14.80;99.90;;;;;;5062045;28;20215;-72
2022/08/30 05:26:26;;;;;;;26.10;17.30;;;14.80;99.90;;;;;;5064124;28;20192;-73
2022/08/30 05:28:54;;;;;;;23.37;16.97;;;14.90;99.90;;;;;;5077376;28;20223;-72
2022/08/30 05:31:23;;;;;;;21.57;16.37;;;14.90;99.90;;;;;;5059797;28;20204;-72
2022/08/30 05:33:52;;;;;;;22.67;14.97;;;14.90;99.90;;;;;;5071990;28;20266;-72
2022/08/30 05:36:24;;;;;;;23.70;16.10;;;14.90;99.90;;;;;;5058189;28;20600;-73
2022/08/30 05:38:52;;;;;;;21.83;16.60;;;14.90;99.90;;;;;;5074201;28;20296;-73
2022/08/30 05:41:22;;;;;;;19.43;15.80;;;15.00;99.90;;;;;;5071207;28;20686;-72
2022/08/30 05:43:58;;;;;;;22.43;15.10;;;15.10;99.90;;;;;;5073771;28;20231;-72
2022/08/30 05:46:28;;;;;;;19.97;14.40;;;15.10;99.90;;;;;;5075035;28;20219;-72
2022/08/30 05:48:55;;;;;;;18.40;14.37;;;15.10;99.90;;;;;;5081523;28;20618;-73
2022/08/30 05:51:25;;;;;;;18.00;13.63;;;15.10;99.90;;;;;;5079864;28;20227;-73
2022/08/30 05:53:53;;;;;;;17.50;14.33;;;15.20;99.90;;;;;;5075377;28;20212;-72
2022/08/30 05:56:24;;;;;;;19.27;13.13;;;15.20;99.90;;;;;;5081757;28;20281;-72
2022/08/30 05:58:53;;;;;;;18.83;13.93;;;15.30;99.90;;;;;;5084552;28;20264;-75
2022/08/30 06:01:29;;;;;;;21.03;15.30;;;15.30;99.90;;;;;;5081326;28;20238;-74
2022/08/30 06:03:58;;;;;;;19.57;14.17;;;15.40;99.90;;;;;;5075704;28;20307;-74
2022/08/30 06:06:32;;;;;;;19.57;13.43;;;15.40;99.90;;;;;;5079319;28;20260;-74
2022/08/30 06:09:00;;;;;;;18.07;13.83;;;15.50;99.90;;;;;;5060405;28;20223;-74
2022/08/30 06:11:31;;;;;;;20.77;14.60;;;15.50;99.90;;;;;;5076792;28;20220;-73
2022/08/30 06:13:58;;;;;;;17.60;12.77;;;15.60;99.90;;;;;;5080216;28;20248;-73
2022/08/30 06:16:27;;;;;;;17.00;12.53;;;15.60;99.90;;;;;;5082036;28;20315;-73
2022/08/30 06:18:55;;;;;;;19.73;12.63;;;15.70;99.90;;;;;;5077894;28;20203;-73
2022/08/30 06:21:26;;;;;;;14.43;12.30;;;15.80;99.90;;;;;;5075034;28;20224;-74
2022/08/30 06:23:55;;;;;;;14.20;11.10;;;15.80;99.90;;;;;;5049047;28;20211;-74
2022/08/30 06:26:25;;;;;;;13.30;10.77;;;15.90;99.90;;;;;;5076558;28;20213;-73
2022/08/30 06:28:53;;;;;;;10.80;8.63;;;16.20;99.90;;;;;;5062286;28;20310;-76
2022/08/30 06:31:22;;;;;;;10.45;8.57;;;17.00;99.90;;;;;;5075002;28;20227;-74
2022/08/30 06:33:50;;;;;;;7.93;7.10;;;17.90;99.90;;;;;;5076863;28;20254;-75
2022/08/30 06:36:21;;;;;;;9.00;6.43;;;19.00;99.90;;;;;;5061900;28;20232;-73
2022/08/30 06:38:53;;;;;;;7.55;5.80;;;20.10;99.90;;;;;;5068964;28;20212;-75
2022/08/30 06:41:23;;;;;;;5.93;5.35;;;21.00;99.90;;;;;;5083848;28;20208;-75
2022/08/30 06:43:53;;;;;;;5.82;4.47;;;21.90;99.90;;;;;;5088260;28;20243;-74
2022/08/30 06:46:23;;;;;;;6.38;4.40;;;22.70;99.90;;;;;;5071341;28;20214;-74
2022/08/30 06:48:51;;;;;;;8.63;4.78;;;23.30;99.90;;;;;;5086554;28;20558;-75
2022/08/30 06:51:25;;;;;;;4.82;4.32;;;23.60;99.90;;;;;;5085786;28;20594;-76
2022/08/30 06:53:52;;;;;;;4.43;3.97;;;24.50;99.90;;;;;;5069520;28;20207;-76
2022/08/30 06:56:20;;;;;;;6.53;4.40;;;24.90;99.90;;;;;;5067071;28;20204;-75
2022/08/30 06:58:49;;;;;;;5.18;4.00;;;25.40;99.90;;;;;;5067145;28;20401;-75
2022/08/30 07:01:22;;;;;;;4.90;3.92;;;25.80;99.90;;;;;;5069849;28;20720;-76
2022/08/30 07:03:54;;;;;;;5.75;3.67;;;;;;;;;;5086970;28;20215;-76
2022/08/30 07:06:23;;;;;;;4.53;3.30;;;26.60;99.90;;;;;;5085183;28;20708;-75
2022/08/30 07:08:51;;;;;;;4.00;2.92;;;26.80;99.90;;;;;;5088238;28;20196;-76
2022/08/30 07:11:40;;;;;;;8.68;3.55;;;27.10;99.90;;;;;;5067917;28;20294;-75
2022/08/30 07:14:10;;;;;;;7.10;3.65;;;27.40;99.90;;;;;;5068961;28;20647;-74
2022/08/30 07:16:37;;;;;;;3.20;2.90;;;27.20;99.90;;;;;;5086659;28;20684;-76
2022/08/30 07:19:08;;;;;;;4.20;2.90;;;27.30;99.90;;;;;;5086372;28;20200;-76
2022/08/30 07:21:47;;;;;;;3.28;2.60;;;27.60;99.90;;;;;;5067469;28;20347;-76
2022/08/30 07:24:16;;;;;;;3.35;2.60;;;27.90;99.90;;;;;;5069391;28;20311;-76
2022/08/30 07:26:47;;;;;;;4.28;2.60;;;28.10;99.90;;;;;;5069061;28;20200;-76
2022/08/30 07:29:16;;;;;;;3.80;2.53;;;28.10;99.90;;;;;;5064959;28;20681;-76
2022/08/30 07:31:44;;;;;;;3.95;2.75;;;28.30;99.90;;;;;;5065073;28;20660;-76
2022/08/30 07:34:11;;;;;;;4.00;2.38;;;28.50;99.90;;;;;;5086176;28;20245;-76
2022/08/30 07:36:38;;;;;;;2.42;2.15;;;28.50;99.90;;;;;;5082958;28;20236;-77
2022/08/30 07:39:09;;;;;;;2.67;2.28;;;28.50;99.90;;;;;;5072521;28;20239;-76
2022/08/30 07:41:37;;;;;;;2.08;1.83;;;28.60;99.90;;;;;;5066753;28;20657;-76
2022/08/30 07:44:08;;;;;;;4.85;2.00;;;28.60;99.90;;;;;;5067544;28;20212;-75
2022/08/30 07:46:38;;;;;;;6.07;2.17;;;28.50;99.90;;;;;;5086493;28;20208;-75
2022/08/30 07:49:06;;;;;;;4.20;1.92;;;28.50;99.90;;;;;;5065363;28;20200;-78
2022/08/30 07:51:37;;;;;;;3.90;1.98;;;28.30;99.90;;;;;;5064838;28;20316;-76
2022/08/30 07:54:05;;;;;;;4.00;2.13;;;28.20;99.90;;;;;;5082041;28;20239;-77
2022/08/30 07:56:36;;;;;;;4.85;2.45;;;28.10;99.90;;;;;;5070816;28;20261;-76
2022/08/30 07:59:03;;;;;;;5.15;2.10;;;28.10;99.90;;;;;;5085948;28;20224;-76
2022/08/30 08:01:31;;;;;;;5.03;1.83;;;27.90;99.60;;;;;;5068360;28;20250;-76
2022/08/30 08:03:58;;;;;;;3.30;1.52;;;27.90;98.90;;;;;;5064506;28;20582;-77
2022/08/30 08:06:26;;;;;;;5.82;1.85;;;27.80;98.50;;;;;;5083408;28;20699;-74
2022/08/30 08:09:01;;;;;;;4.45;1.80;;;27.60;98.00;;;;;;5086870;28;20516;-76
2022/08/30 08:11:30;;;;;;;3.25;1.80;;;27.40;97.80;;;;;;5085625;28;20207;-75
2022/08/30 08:14:00;;;;;;;4.75;1.80;;;27.00;97.70;;;;;;5083757;28;20207;-75
2022/08/30 08:16:30;;;;;;;2.63;2.15;;;26.90;98.20;;;;;;5087088;28;20543;-75
2022/08/30 08:18:57;;;;;;;4.88;1.90;;;26.90;98.50;;;;;;5084959;28;20208;-75
2022/08/30 08:21:25;;;;;;;2.85;1.98;;;26.90;98.70;;;;;;5084146;28;20222;-77
2022/08/30 08:23:53;;;;;;;4.40;2.33;;;27.00;98.50;;;;;;5084313;28;20219;-76
2022/08/30 08:26:20;;;;;;;2.17;1.42;;;26.90;97.90;;;;;;5069221;28;20616;-75
2022/08/30 08:28:47;;;;;;;6.78;1.60;;;26.80;97.80;;;;;;5063890;28;20700;-76
2022/08/30 08:31:20;;;;;;;6.00;2.00;;;26.70;97.80;;;;;;5085073;28;20678;-78
2022/08/30 08:33:51;;;;;;;3.50;1.50;;;26.80;97.40;;;;;;5083037;28;20282;-75
2022/08/30 08:36:17;;;;;;;3.95;2.25;;;26.50;97.10;;;;;;5085375;28;20219;-76
2022/08/30 08:38:44;;;;;;;5.28;1.77;;;26.50;97.30;;;;;;5061817;28;20588;-77
2022/08/30 08:41:30;;;;;;;2.40;1.70;;;26.40;97.00;;;;;;5083417;28;20254;-76
2022/08/30 08:43:57;;;;;;;1.60;1.48;;;26.70;96.70;;;;;;5083246;28;20294;-75
2022/08/30 08:46:55;;;;;;;3.85;1.77;;;26.60;96.80;;;;;;5082938;28;20200;-75
2022/08/30 08:49:22;;;;;;;7.72;1.73;;;26.70;96.20;;;;;;5062111;28;20586;-76
2022/08/30 08:54:55;;;;;;;5.20;1.70;;;26.90;96.40;;;;;;5085173;28;20215;-75
2022/08/30 08:57:28;;;;;;;4.50;1.75;;;26.80;94.40;;;;;;5078367;28;20669;-76
2022/08/30 08:59:55;;;;;;;5.20;1.65;;;26.60;95.20;;;;;;5069042;28;20222;-76
2022/08/30 09:02:25;;;;;;;4.28;1.40;;;26.50;95.10;;;;;;5083612;28;20707;-75
2022/08/30 09:04:57;;;;;;;2.17;1.42;;;26.50;94.90;;;;;;5082373;28;20205;-74
2022/08/30 09:07:28;;;;;;;3.38;1.50;;;26.30;95.00;;;;;;5083389;28;20356;-75
2022/08/30 09:09:58;;;;;;;3.78;1.63;;;26.30;95.20;;;;;;5065408;28;20525;-75
2022/08/30 09:12:26;;;;;;;5.43;1.88;;;26.20;95.80;;;;;;5078810;28;20200;-74
2022/08/30 09:15:00;;;;;;;4.22;1.40;;;26.20;95.90;;;;;;5082487;28;20253;-75
2022/08/30 09:17:28;;;;;;;7.10;1.50;;;26.30;96.10;;;;;;5082709;28;20253;-75
2022/08/30 09:19:55;;;;;;;4.90;1.83;;;26.50;95.40;;;;;;5083067;28;20220;-75
2022/08/30 09:22:30;;;;;;;2.97;1.95;;;26.60;95.10;;;;;;5084573;28;20227;-74
2022/08/30 09:25:29;;;;;;;6.28;1.83;;;26.60;94.40;;;;;;5087544;28;20206;-75
2022/08/30 09:28:14;;;;;;;3.60;1.35;;;26.50;94.00;;;;;;5084468;28;20258;-76
2022/08/30 09:31:04;;;;;;;5.20;1.30;;;26.30;94.00;;;;;;5085956;28;20702;-74
2022/08/30 09:33:37;;;;;;;5.47;1.67;;;26.00;93.80;;;;;;5085726;28;20265;-76
2022/08/30 09:36:21;;;;;;;6.18;2.08;;;25.90;94.50;;;;;;5083692;28;20302;-76
2022/08/30 09:38:58;;;;;;;5.82;1.90;;;25.80;94.50;;;;;;5078861;28;20243;-76
2022/08/30 09:41:41;;;;;;;3.05;1.35;;;25.90;94.70;;;;;;5068062;28;20219;-78
2022/08/30 09:44:15;;;;;;;2.65;1.45;;;25.90;93.60;;;;;;5069813;28;20212;-75
2022/08/30 09:47:17;;;;;;;5.45;1.48;;;25.60;94.10;;;;;;5068196;28;20208;-76
2022/08/30 09:50:01;;;;;;;5.65;1.40;;;25.40;94.30;;;;;;5086996;28;20283;-75
2022/08/30 09:52:59;;;;;;;3.97;1.58;;;25.20;94.40;;;;;;5085294;28;20580;-74
2022/08/30 09:55:36;;;;;;;2.15;1.63;;;25.20;93.40;;;;;;5086983;28;20297;-75
2022/08/30 09:58:19;;;;;;;3.40;1.45;;;25.10;93.70;;;;;;5083157;28;20727;-75
2022/08/30 10:01:09;;;;;;;5.03;1.70;;;24.90;94.40;;;;;;5084916;28;20188;-75
2022/08/30 10:03:42;;;;;;;1.92;1.50;;;25.00;94.60;;;;;;5086809;28;20568;-76
2022/08/30 10:06:14;;;;;;;4.25;2.30;;;25.10;94.60;;;;;;5087809;28;20306;-74
2022/08/30 10:08:59;;;;;;;3.80;1.50;;;25.00;94.00;;;;;;5085801;28;20272;-74
2022/08/30 10:11:38;;;;;;;2.92;1.60;;;24.80;94.10;;;;;;5083015;28;20265;-76
2022/08/30 10:14:05;;;;;;;3.85;1.50;;;24.80;94.30;;;;;;5088176;28;20227;-76
2022/08/30 10:16:36;;;;;;;3.53;1.35;;;24.80;94.70;;;;;;5087074;28;20606;-75
2022/08/30 10:19:28;;;;;;;4.57;1.67;;;24.90;93.90;;;;;;5068149;28;20645;-75
2022/08/30 10:22:07;;;;;;;2.13;1.42;;;25.00;93.90;;;;;;5081039;28;20227;-75
2022/08/30 10:24:39;;;;;;;3.53;1.33;;;25.10;93.70;;;;;;5084870;28;20232;-75
2022/08/30 10:27:28;;;;;;;3.13;1.70;;;25.10;92.70;;;;;;5086444;28;20600;-74
2022/08/30 10:30:04;;;;;;;2.95;1.45;;;24.90;92.80;;;;;;5066749;28;20279;-75
2022/08/30 10:32:52;;;;;;;2.55;1.30;;;24.70;93.50;;;;;;5085029;28;20264;-75
2022/08/30 10:35:26;;;;;;;3.38;1.77;;;24.80;93.50;;;;;;5085178;28;20558;-75
2022/08/30 10:38:02;;;;;;;2.38;1.30;;;24.80;93.60;;;;;;5066570;28;20263;-75
2022/08/30 10:43:53;;;;;;;3.60;1.77;;;24.70;93.10;;;;;;5085537;28;20216;-75
2022/08/30 10:46:45;;;;;;;3.05;1.30;;;24.60;92.90;;;;;;5069355;28;20229;-75
2022/08/30 10:49:21;;;;;;;3.25;1.42;;;24.50;93.20;;;;;;5063676;28;20193;-77
2022/08/30 10:52:22;;;;;;;3.47;1.50;;;24.60;93.50;;;;;;5068657;28;20223;-75
2022/08/30 10:54:59;;;;;;;2.47;1.30;;;24.70;93.90;;;;;;5035310;28;20216;-75
2022/08/30 10:57:26;;;;;;;4.70;1.70;;;24.80;92.80;;;;;;5083572;28;20268;-76
2022/08/30 11:00:05;;;;;;;5.30;1.88;;;24.70;93.40;;;;;;5086316;28;20212;-75
2022/08/30 11:03:24;;;;;;;2.83;1.40;;;24.90;93.50;;;;;;5066861;28;20212;-75
2022/08/30 11:06:23;;;;;;;2.67;1.63;;;25.00;93.50;;;;;;5050784;28;20203;-75
2022/08/30 11:09:13;;;;;;;2.55;1.58;;;25.10;92.80;;;;;;5086288;28;20229;-76
2022/08/30 11:12:21;;;;;;;2.03;1.20;;;25.20;92.70;;;;;;5084309;28;20295;-75
2022/08/30 11:14:53;;;;;;;2.42;1.50;;;25.40;92.50;;;;;;5086028;28;20203;-76
2022/08/30 11:17:28;;;;;;;2.15;1.50;;;25.40;91.70;;;;;;5086742;28;20284;-75
2022/08/30 11:20:01;;;;;;;3.95;1.55;;;25.50;91.40;;;;;;5089019;28;20623;-76
2022/08/30 11:22:36;;;;;;;4.70;1.50;;;25.60;91.90;;;;;;5084555;28;20284;-76
2022/08/30 11:25:12;;;;;;;4.97;1.58;;;25.70;92.40;;;;;;5086329;28;20219;-75
2022/08/30 11:27:49;;;;;;;2.10;1.40;;;25.90;91.60;;;;;;5086686;28;20247;-75
2022/08/30 11:30:23;;;;;;;2.05;1.38;;;25.90;91.30;;;;;;5070521;28;20219;-76
2022/08/30 11:32:58;;;;;;;4.22;1.48;;;26.00;90.90;;;;;;5086335;28;20217;-75
2022/08/30 11:35:49;;;;;;;1.65;1.27;;;26.00;90.30;;;;;;5083148;28;20262;-76
2022/08/30 11:38:38;;;;;;;1.55;1.30;;;26.10;91.10;;;;;;5082227;28;20228;-77
2022/08/30 11:41:30;;;;;;;1.50;1.33;;;26.10;91.10;;;;;;5088762;28;20207;-76
2022/08/30 11:44:20;;;;;;;3.05;1.30;;;26.00;90.20;;;;;;5086767;28;20226;-76
2022/08/30 11:46:54;;;;;;;3.35;1.45;;;25.80;89.40;;;;;;5081730;28;20568;-77
2022/08/30 11:49:44;;;;;;;2.65;1.42;;;25.80;90.40;;;;;;5085663;28;20219;-75
2022/08/30 11:52:40;;;;;;;2.33;1.42;;;25.90;90.40;;;;;;5084911;28;20232;-77
2022/08/30 11:55:25;;;;;;;2.00;1.67;;;26.10;90.30;;;;;;5085834;28;20215;-76
2022/08/30 11:58:18;;;;;;;2.63;1.35;;;26.20;90.70;;;;;;5084665;28;20543;-76
2022/08/30 12:00:46;;;;;;;3.95;1.85;;;26.40;91.30;;;;;;5086776;28;20253;-76
2022/08/30 12:03:19;;;;;;;3.25;1.40;;;26.40;90.40;;;;;;5089091;28;20247;-76
2022/08/30 12:06:07;;;;;;;1.98;1.40;;;26.40;90.30;;;;;;5070805;28;20222;-76
2022/08/30 12:08:34;;;;;;;2.30;1.38;;;26.40;89.50;;;;;;5081001;28;20672;-75
2022/08/30 12:11:07;;;;;;;2.05;1.35;;;26.20;90.30;;;;;;5086529;28;20261;-75
2022/08/30 12:13:41;;;;;;;2.58;1.70;;;26.40;90.50;;;;;;5070096;28;20302;-76
2022/08/30 12:16:18;;;;;;;2.08;1.50;;;26.50;90.10;;;;;;5083787;28;20721;-73
2022/08/30 12:19:10;;;;;;;3.20;2.05;;;26.60;89.90;;;;;;5063099;28;20231;-75
2022/08/30 12:21:39;;;;;;;4.65;1.48;;;26.60;87.70;;;;;;5066183;28;20223;-76
2022/08/30 12:24:31;;;;;;;2.30;1.58;;;26.40;88.00;;;;;;5083953;28;20207;-76
2022/08/30 12:27:04;;;;;;;4.70;1.55;;;26.60;89.30;;;;;;5082987;28;20755;-78
2022/08/30 12:29:32;;;;;;;4.18;1.67;;;26.70;89.20;;;;;;5063915;28;20701;-75
2022/08/30 12:32:01;;;;;;;2.78;1.70;;;26.80;89.20;;;;;;5084974;28;20211;-77
2022/08/30 12:34:49;;;;;;;2.00;1.67;;;26.90;89.00;;;;;;5066785;28;20511;-76
2022/08/30 12:37:36;;;;;;;2.65;1.58;;;26.90;89.20;;;;;;5085239;28;20610;-76
2022/08/30 12:40:20;;;;;;;3.35;1.48;;;27.00;87.20;;;;;;5078081;28;20208;-75
2022/08/30 12:42:55;;;;;;;3.63;1.63;;;27.00;88.30;;;;;;5080789;28;20604;-78
2022/08/30 12:45:40;;;;;;;1.63;1.30;;;27.10;87.70;;;;;;5085277;28;20207;-76
2022/08/30 12:48:10;;;;;;;3.80;1.60;;;27.10;87.40;;;;;;5085930;28;20695;-76
2022/08/30 12:50:50;;;;;;;3.35;1.60;;;27.10;86.70;;;;;;5082123;28;20211;-76
2022/08/30 12:53:44;;;;;;;2.65;1.50;;;27.10;85.10;;;;;;5064479;28;20302;-76
2022/08/30 12:56:14;;;;;;;2.00;1.45;;;27.10;85.60;;;;;;5082808;28;20876;-76
2022/08/30 12:58:52;;;;;;;2.97;1.50;;;27.10;86.30;;;;;;5083295;28;20728;-76
2022/08/30 13:01:35;;;;;;;2.35;1.45;;;27.10;85.70;;;;;;5080562;28;20238;-76
2022/08/30 13:04:20;;;;;;;3.70;1.48;;;27.30;86.40;;;;;;5081842;28;20330;-76
2022/08/30 13:06:58;;;;;;;3.63;1.65;;;27.40;86.50;;;;;;5064792;28;20208;-76
2022/08/30 13:09:33;;;;;;;1.83;1.40;;;27.30;83.40;;;;;;5086933;28;20678;-76
2022/08/30 13:12:06;;;;;;;2.30;1.20;;;27.10;83.20;;;;;;5080135;28;20219;-76